sensor_id;sensor_type;location;lat;lon;timestamp;pressure;altitude;pressure_sealevel;temperature;humidity
73240;BME280;61452;40.054;4.110;2022-08-06T00:00:59;101639.47;;;28.63;65.22
73240;BME280;61452;40.054;4.110;2022-08-06T00:06:02;101632.69;;;28.58;64.49
73240;BME280;61452;40.054;4.110;2022-08-06T00:11:04;101638.28;;;28.57;63.85
73240;BME280;61452;40.054;4.110;2022-08-06T00:16:10;101635.59;;;28.57;62.76
73240;BME280;61452;40.054;4.110;2022-08-06T00:21:32;101645.03;;;28.61;62.12
73240;BME280;61452;40.054;4.110;2022-08-06T00:26:43;101651.09;;;28.63;60.97
73240;BME280;61452;40.054;4.110;2022-08-06T00:32:05;101643.69;;;28.57;59.84
73240;BME280;61452;40.054;4.110;2022-08-06T00:37:12;101641.84;;;28.49;59.06
73240;BME280;61452;40.054;4.110;2022-08-06T00:42:19;101650.09;;;28.56;58.68
73240;BME280;61452;40.054;4.110;2022-08-06T00:47:24;101646.22;;;28.50;58.49
73240;BME280;61452;40.054;4.110;2022-08-06T00:52:46;101641.66;;;28.51;57.92
73240;BME280;61452;40.054;4.110;2022-08-06T00:57:48;101631.19;;;28.48;57.79
73240;BME280;61452;40.054;4.110;2022-08-06T01:02:51;101625.31;;;28.44;58.58
73240;BME280;61452;40.054;4.110;2022-08-06T01:07:54;101633.41;;;28.44;57.77
73240;BME280;61452;40.054;4.110;2022-08-06T01:13:00;101623.09;;;28.40;58.65
73240;BME280;61452;40.054;4.110;2022-08-06T01:18:16;101627.31;;;28.42;58.79
73240;BME280;61452;40.054;4.110;2022-08-06T01:34:07;101636.94;;;28.37;60.71
73240;BME280;61452;40.054;4.110;2022-08-06T01:39:16;101640.16;;;28.32;61.79
73240;BME280;61452;40.054;4.110;2022-08-06T01:44:27;101630.38;;;28.31;62.71
73240;BME280;61452;40.054;4.110;2022-08-06T01:49:31;101646.22;;;28.42;63.67
73240;BME280;61452;40.054;4.110;2022-08-06T01:54:56;101647.75;;;28.37;64.29
73240;BME280;61452;40.054;4.110;2022-08-06T02:00:04;101650.13;;;28.32;63.89
73240;BME280;61452;40.054;4.110;2022-08-06T02:05:15;101654.31;;;28.34;63.72
73240;BME280;61452;40.054;4.110;2022-08-06T02:10:21;101659.72;;;28.34;64.14
73240;BME280;61452;40.054;4.110;2022-08-06T02:15:28;101659.53;;;28.36;63.53
73240;BME280;61452;40.054;4.110;2022-08-06T02:20:54;101656.16;;;28.34;63.99
73240;BME280;61452;40.054;4.110;2022-08-06T02:25:57;101636.09;;;28.28;64.75
73240;BME280;61452;40.054;4.110;2022-08-06T02:31:00;101650.09;;;28.40;65.75
73240;BME280;61452;40.054;4.110;2022-08-06T02:41:31;101636.25;;;28.35;67.45
73240;BME280;61452;40.054;4.110;2022-08-06T02:47:04;101637.94;;;28.36;68.42
73240;BME280;61452;40.054;4.110;2022-08-06T02:52:28;101626.84;;;28.39;68.10
73240;BME280;61452;40.054;4.110;2022-08-06T02:57:40;101628.84;;;28.37;69.24
73240;BME280;61452;40.054;4.110;2022-08-06T03:02:54;101632.41;;;28.37;67.96
73240;BME280;61452;40.054;4.110;2022-08-06T03:07:58;101632.72;;;28.34;67.36
73240;BME280;61452;40.054;4.110;2022-08-06T03:13:03;101638.97;;;28.35;68.99
73240;BME280;61452;40.054;4.110;2022-08-06T03:18:12;101628.31;;;28.33;70.16
73240;BME280;61452;40.054;4.110;2022-08-06T03:23:24;101627.69;;;28.31;70.87
73240;BME280;61452;40.054;4.110;2022-08-06T03:28:28;101615.88;;;28.24;70.85
73240;BME280;61452;40.054;4.110;2022-08-06T03:33:32;101625.31;;;28.36;71.57
73240;BME280;61452;40.054;4.110;2022-08-06T03:38:58;101633.91;;;28.32;72.28
73240;BME280;61452;40.054;4.110;2022-08-06T03:44:02;101627.16;;;28.36;72.52
73240;BME280;61452;40.054;4.110;2022-08-06T03:49:10;101629.69;;;28.37;72.55
73240;BME280;61452;40.054;4.110;2022-08-06T03:54:15;101631.19;;;28.40;72.69
73240;BME280;61452;40.054;4.110;2022-08-06T03:59:32;101632.72;;;28.34;73.21
73240;BME280;61452;40.054;4.110;2022-08-06T04:04:46;101623.63;;;28.35;73.28
73240;BME280;61452;40.054;4.110;2022-08-06T04:09:49;101627.31;;;28.34;73.32
73240;BME280;61452;40.054;4.110;2022-08-06T04:15:03;101632.72;;;28.34;73.53
73240;BME280;61452;40.054;4.110;2022-08-06T04:20:11;101632.06;;;28.32;73.30
73240;BME280;61452;40.054;4.110;2022-08-06T04:25:14;101636.44;;;28.33;73.84
73240;BME280;61452;40.054;4.110;2022-08-06T04:30:17;101627.81;;;28.22;74.74
73240;BME280;61452;40.054;4.110;2022-08-06T04:35:19;101644.72;;;28.32;74.81
73240;BME280;61452;40.054;4.110;2022-08-06T04:40:42;101648.25;;;28.32;74.78
73240;BME280;61452;40.054;4.110;2022-08-06T04:45:55;101654.16;;;28.36;74.62
73240;BME280;61452;40.054;4.110;2022-08-06T04:51:17;101658.38;;;28.30;74.84
73240;BME280;61452;40.054;4.110;2022-08-06T04:56:40;101666.13;;;28.33;74.76
73240;BME280;61452;40.054;4.110;2022-08-06T05:01:49;101654.16;;;28.36;74.34
73240;BME280;61452;40.054;4.110;2022-08-06T05:12:11;101671.88;;;28.30;74.40
73240;BME280;61452;40.054;4.110;2022-08-06T05:17:14;101666.13;;;28.33;74.53
73240;BME280;61452;40.054;4.110;2022-08-06T05:22:18;101685.53;;;28.37;75.56
73240;BME280;61452;40.054;4.110;2022-08-06T05:27:41;101684.69;;;28.44;77.49
73240;BME280;61452;40.054;4.110;2022-08-06T05:33:04;101689.91;;;28.30;78.81
73240;BME280;61452;40.054;4.110;2022-08-06T05:38:08;101692.75;;;28.28;79.79
73240;BME280;61452;40.054;4.110;2022-08-06T05:43:12;101705.06;;;28.14;80.94
73240;BME280;61452;40.054;4.110;2022-08-06T05:48:16;101711.00;;;28.34;78.91
73240;BME280;61452;40.054;4.110;2022-08-06T05:53:56;101714.03;;;28.39;75.26
73240;BME280;61452;40.054;4.110;2022-08-06T05:59:15;101721.09;;;28.40;72.08
73240;BME280;61452;40.054;4.110;2022-08-06T06:04:40;101721.63;;;28.44;70.17
73240;BME280;61452;40.054;4.110;2022-08-06T06:10:05;101716.72;;;28.47;69.89
73240;BME280;61452;40.054;4.110;2022-08-06T06:15:18;101715.88;;;28.47;70.61
73240;BME280;61452;40.054;4.110;2022-08-06T06:26:45;101728.03;;;28.43;70.58
73240;BME280;61452;40.054;4.110;2022-08-06T06:43:21;101724.00;;;28.39;71.22
73240;BME280;61452;40.054;4.110;2022-08-06T06:48:37;101728.38;;;28.40;69.36
73240;BME280;61452;40.054;4.110;2022-08-06T06:53:45;101738.84;;;28.43;70.64
73240;BME280;61452;40.054;4.110;2022-08-06T06:59:19;101734.59;;;28.40;70.14
73240;BME280;61452;40.054;4.110;2022-08-06T07:04:43;101741.88;;;28.48;70.41
73240;BME280;61452;40.054;4.110;2022-08-06T07:09:51;101746.44;;;28.47;72.84
73240;BME280;61452;40.054;4.110;2022-08-06T07:15:02;101747.63;;;28.45;71.35
73240;BME280;61452;40.054;4.110;2022-08-06T07:20:07;101742.03;;;28.46;72.25
73240;BME280;61452;40.054;4.110;2022-08-06T07:25:13;101756.91;;;28.50;73.10
73240;BME280;61452;40.054;4.110;2022-08-06T07:30:20;101746.44;;;28.47;73.11
73240;BME280;61452;40.054;4.110;2022-08-06T07:35:29;101758.06;;;28.48;70.18
73240;BME280;61452;40.054;4.110;2022-08-06T07:40:38;101765.16;;;28.41;69.33
73240;BME280;61452;40.054;4.110;2022-08-06T07:45:49;101751.28;;;28.28;70.78
73240;BME280;61452;40.054;4.110;2022-08-06T07:50:56;101777.44;;;28.27;70.25
73240;BME280;61452;40.054;4.110;2022-08-06T07:56:03;101770.38;;;28.26;69.70
73240;BME280;61452;40.054;4.110;2022-08-06T08:01:09;101773.53;;;28.22;68.76
73240;BME280;61452;40.054;4.110;2022-08-06T08:06:17;101774.03;;;28.17;68.67
73240;BME280;61452;40.054;4.110;2022-08-06T08:11:23;101768.66;;;28.17;69.18
73240;BME280;61452;40.054;4.110;2022-08-06T08:16:46;101775.91;;;28.16;67.70
73240;BME280;61452;40.054;4.110;2022-08-06T08:21:51;101752.59;;;28.07;65.87
73240;BME280;61452;40.054;4.110;2022-08-06T08:26:54;101755.31;;;28.15;66.56
73240;BME280;61452;40.054;4.110;2022-08-06T08:32:17;101784.53;;;28.28;66.08
73240;BME280;61452;40.054;4.110;2022-08-06T08:37:20;101781.50;;;28.31;65.30
73240;BME280;61452;40.054;4.110;2022-08-06T08:42:43;101782.19;;;28.41;65.31
73240;BME280;61452;40.054;4.110;2022-08-06T08:47:50;101779.16;;;28.44;66.71
73240;BME280;61452;40.054;4.110;2022-08-06T08:53:06;101784.72;;;28.43;65.07
73240;BME280;61452;40.054;4.110;2022-08-06T08:58:11;101788.94;;;28.45;65.24
73240;BME280;61452;40.054;4.110;2022-08-06T09:03:36;101783.22;;;28.48;65.53
73240;BME280;61452;40.054;4.110;2022-08-06T09:08:48;101798.91;;;28.45;66.92
73240;BME280;61452;40.054;4.110;2022-08-06T09:14:06;101801.25;;;28.48;66.34
73240;BME280;61452;40.054;4.110;2022-08-06T09:19:09;101799.41;;;28.48;66.80
73240;BME280;61452;40.054;4.110;2022-08-06T09:24:12;101802.44;;;28.45;67.96
73240;BME280;61452;40.054;4.110;2022-08-06T09:29:20;101791.16;;;28.50;67.16
73240;BME280;61452;40.054;4.110;2022-08-06T09:34:38;101794.34;;;28.53;67.92
73240;BME280;61452;40.054;4.110;2022-08-06T09:39:42;101804.50;;;28.51;69.70
73240;BME280;61452;40.054;4.110;2022-08-06T09:45:11;101796.91;;;28.55;66.67
73240;BME280;61452;40.054;4.110;2022-08-06T09:50:44;101807.53;;;28.56;66.69
73240;BME280;61452;40.054;4.110;2022-08-06T09:55:50;101795.38;;;28.61;67.92
73240;BME280;61452;40.054;4.110;2022-08-06T10:01:14;101811.06;;;28.65;68.50
73240;BME280;61452;40.054;4.110;2022-08-06T10:06:24;101802.97;;;28.65;68.61
73240;BME280;61452;40.054;4.110;2022-08-06T10:11:35;101810.22;;;28.65;67.44
73240;BME280;61452;40.054;4.110;2022-08-06T10:17:19;101805.84;;;28.64;67.96
73240;BME280;61452;40.054;4.110;2022-08-06T10:22:22;101811.06;;;28.65;68.45
73240;BME280;61452;40.054;4.110;2022-08-06T10:27:33;101808.06;;;28.68;68.56
73240;BME280;61452;40.054;4.110;2022-08-06T10:33:05;101803.31;;;28.70;68.89
73240;BME280;61452;40.054;4.110;2022-08-06T10:38:25;101806.84;;;28.71;70.94
73240;BME280;61452;40.054;4.110;2022-08-06T10:43:37;101804.72;;;28.74;69.02
73240;BME280;61452;40.054;4.110;2022-08-06T10:48:40;101808.25;;;28.75;68.34
73240;BME280;61452;40.054;4.110;2022-08-06T10:54:03;101806.22;;;28.77;68.47
73240;BME280;61452;40.054;4.110;2022-08-06T10:59:20;101808.75;;;28.78;68.83
73240;BME280;61452;40.054;4.110;2022-08-06T11:04:58;101802.00;;;28.82;67.15
73240;BME280;61452;40.054;4.110;2022-08-06T11:15:20;101808.25;;;28.83;67.61
73240;BME280;61452;40.054;4.110;2022-08-06T11:25:45;101794.09;;;28.81;69.97
73240;BME280;61452;40.054;4.110;2022-08-06T11:30:51;101798.47;;;28.82;68.87
73240;BME280;61452;40.054;4.110;2022-08-06T11:35:53;101802.34;;;28.87;70.17
73240;BME280;61452;40.054;4.110;2022-08-06T11:41:07;101791.38;;;28.81;69.00
73240;BME280;61452;40.054;4.110;2022-08-06T12:07:47;101809.75;;;29.02;64.78
73240;BME280;61452;40.054;4.110;2022-08-06T12:13:37;101808.91;;;29.01;64.79
73240;BME280;61452;40.054;4.110;2022-08-06T12:18:59;101803.34;;;29.03;64.89
73240;BME280;61452;40.054;4.110;2022-08-06T12:24:03;101804.88;;;29.05;65.25
73240;BME280;61452;40.054;4.110;2022-08-06T12:29:06;101802.34;;;29.04;64.65
73240;BME280;61452;40.054;4.110;2022-08-06T12:34:08;101802.16;;;29.05;64.17
73240;BME280;61452;40.054;4.110;2022-08-06T12:39:10;101798.28;;;29.08;64.43
73240;BME280;61452;40.054;4.110;2022-08-06T12:44:32;101789.31;;;29.07;65.12
73240;BME280;61452;40.054;4.110;2022-08-06T12:49:55;101782.91;;;29.08;65.30
73240;BME280;61452;40.054;4.110;2022-08-06T12:54:57;101772.94;;;29.09;65.65
73240;BME280;61452;40.054;4.110;2022-08-06T12:59:59;101775.00;;;29.07;64.50
73240;BME280;61452;40.054;4.110;2022-08-06T13:05:02;101766.88;;;29.07;64.52
73240;BME280;61452;40.054;4.110;2022-08-06T13:10:09;101765.69;;;29.09;65.75
73240;BME280;61452;40.054;4.110;2022-08-06T13:15:32;101770.25;;;29.09;65.76
73240;BME280;61452;40.054;4.110;2022-08-06T13:20:49;101777.34;;;29.10;64.71
73240;BME280;61452;40.054;4.110;2022-08-06T13:25:55;101762.13;;;29.09;64.67
73240;BME280;61452;40.054;4.110;2022-08-06T13:31:18;101761.97;;;29.10;64.87
73240;BME280;61452;40.054;4.110;2022-08-06T13:36:42;101750.16;;;29.11;65.67
73240;BME280;61452;40.054;4.110;2022-08-06T13:42:08;101748.47;;;29.10;65.36
73240;BME280;61452;40.054;4.110;2022-08-06T13:47:27;101753.00;;;29.10;65.23
73240;BME280;61452;40.054;4.110;2022-08-06T13:52:49;101749.47;;;29.09;64.64
73240;BME280;61452;40.054;4.110;2022-08-06T13:58:01;101757.41;;;29.11;65.50
73240;BME280;61452;40.054;4.110;2022-08-06T14:03:04;101745.75;;;29.10;64.83
73240;BME280;61452;40.054;4.110;2022-08-06T14:08:14;101735.94;;;29.09;65.41
73240;BME280;61452;40.054;4.110;2022-08-06T14:13:34;101738.66;;;29.09;64.77
73240;BME280;61452;40.054;4.110;2022-08-06T14:18:37;101728.69;;;29.10;65.19
73240;BME280;61452;40.054;4.110;2022-08-06T14:23:40;101732.25;;;29.10;64.86
73240;BME280;61452;40.054;4.110;2022-08-06T14:29:01;101714.16;;;29.11;64.57
73240;BME280;61452;40.054;4.110;2022-08-06T14:34:25;101710.78;;;29.09;64.37
73240;BME280;61452;40.054;4.110;2022-08-06T14:39:37;101711.63;;;29.09;65.78
73240;BME280;61452;40.054;4.110;2022-08-06T14:44:59;101709.09;;;29.08;64.59
73240;BME280;61452;40.054;4.110;2022-08-06T14:50:08;101695.59;;;29.08;65.08
73240;BME280;61452;40.054;4.110;2022-08-06T14:55:11;101691.22;;;29.07;64.86
73240;BME280;61452;40.054;4.110;2022-08-06T15:00:23;101686.63;;;29.07;65.37
73240;BME280;61452;40.054;4.110;2022-08-06T15:05:37;101684.78;;;29.08;64.65
73240;BME280;61452;40.054;4.110;2022-08-06T15:11:00;101682.06;;;29.08;66.38
73240;BME280;61452;40.054;4.110;2022-08-06T15:16:07;101679.56;;;29.06;65.78
73240;BME280;61452;40.054;4.110;2022-08-06T15:21:23;101666.06;;;29.06;66.60
73240;BME280;61452;40.054;4.110;2022-08-06T15:26:40;101664.38;;;29.05;66.53
73240;BME280;61452;40.054;4.110;2022-08-06T15:31:50;101656.44;;;29.04;66.73
73240;BME280;61452;40.054;4.110;2022-08-06T15:36:52;101662.69;;;29.04;67.03
73240;BME280;61452;40.054;4.110;2022-08-06T15:42:03;101646.47;;;29.04;66.58
73240;BME280;61452;40.054;4.110;2022-08-06T15:47:06;101636.50;;;29.05;67.09
73240;BME280;61452;40.054;4.110;2022-08-06T15:52:09;101634.97;;;29.02;66.93
73240;BME280;61452;40.054;4.110;2022-08-06T15:57:13;101632.13;;;29.04;67.39
73240;BME280;61452;40.054;4.110;2022-08-06T16:02:18;101625.03;;;29.03;68.12
73240;BME280;61452;40.054;4.110;2022-08-06T16:07:35;101608.50;;;28.98;67.40
73240;BME280;61452;40.054;4.110;2022-08-06T16:12:57;101634.81;;;29.04;67.99
73240;BME280;61452;40.054;4.110;2022-08-06T16:18:00;101628.88;;;29.08;68.78
73240;BME280;61452;40.054;4.110;2022-08-06T16:23:22;101626.19;;;29.08;68.37
73240;BME280;61452;40.054;4.110;2022-08-06T16:28:46;101623.84;;;29.05;68.66
73240;BME280;61452;40.054;4.110;2022-08-06T16:33:49;101625.00;;;29.11;68.78
73240;BME280;61452;40.054;4.110;2022-08-06T16:38:55;101620.97;;;29.07;68.77
73240;BME280;61452;40.054;4.110;2022-08-06T16:43:57;101620.22;;;29.21;67.50
73240;BME280;61452;40.054;4.110;2022-08-06T16:49:00;101615.25;;;29.32;67.13
73240;BME280;61452;40.054;4.110;2022-08-06T16:54:03;101618.28;;;29.46;67.26
73240;BME280;61452;40.054;4.110;2022-08-06T16:59:16;101614.50;;;29.55;67.54
73240;BME280;61452;40.054;4.110;2022-08-06T17:04:21;101612.59;;;29.63;67.00
73240;BME280;61452;40.054;4.110;2022-08-06T17:09:27;101610.22;;;29.68;66.89
73240;BME280;61452;40.054;4.110;2022-08-06T17:14:48;101609.84;;;29.71;66.12
73240;BME280;61452;40.054;4.110;2022-08-06T17:19:53;101599.19;;;29.70;65.87
73240;BME280;61452;40.054;4.110;2022-08-06T17:25:03;101601.59;;;29.65;65.70
73240;BME280;61452;40.054;4.110;2022-08-06T17:30:08;101584.19;;;29.67;65.77
73240;BME280;61452;40.054;4.110;2022-08-06T17:35:15;101581.59;;;29.74;65.37
73240;BME280;61452;40.054;4.110;2022-08-06T17:40:23;101585.50;;;29.71;65.78
73240;BME280;61452;40.054;4.110;2022-08-06T17:45:33;101593.19;;;29.83;65.42
73240;BME280;61452;40.054;4.110;2022-08-06T17:50:35;101584.91;;;29.84;65.53
73240;BME280;61452;40.054;4.110;2022-08-06T17:55:42;101590.13;;;29.86;65.07
73240;BME280;61452;40.054;4.110;2022-08-06T18:01:01;101597.56;;;29.84;64.80
73240;BME280;61452;40.054;4.110;2022-08-06T18:06:11;101597.41;;;29.85;64.34
73240;BME280;61452;40.054;4.110;2022-08-06T18:11:17;101601.97;;;29.85;64.57
73240;BME280;61452;40.054;4.110;2022-08-06T18:16:22;101601.31;;;29.83;65.15
73240;BME280;61452;40.054;4.110;2022-08-06T18:21:30;101604.69;;;29.85;65.50
73240;BME280;61452;40.054;4.110;2022-08-06T18:26:33;101609.63;;;29.81;64.66
73240;BME280;61452;40.054;4.110;2022-08-06T18:31:35;101613.63;;;29.85;63.93
73240;BME280;61452;40.054;4.110;2022-08-06T18:36:58;101622.22;;;29.89;63.98
73240;BME280;61452;40.054;4.110;2022-08-06T18:42:20;101619.72;;;29.87;64.83
73240;BME280;61452;40.054;4.110;2022-08-06T18:47:24;101623.16;;;29.81;65.69
73240;BME280;61452;40.054;4.110;2022-08-06T18:52:27;101620.09;;;29.76;67.02
73240;BME280;61452;40.054;4.110;2022-08-06T18:57:34;101614.56;;;29.69;66.66
73240;BME280;61452;40.054;4.110;2022-08-06T19:02:56;101606.88;;;29.58;66.82
73240;BME280;61452;40.054;4.110;2022-08-06T19:07:59;101607.25;;;29.55;66.34
73240;BME280;61452;40.054;4.110;2022-08-06T19:13:06;101605.91;;;29.51;66.46
73240;BME280;61452;40.054;4.110;2022-08-06T19:18:11;101597.66;;;29.45;66.39
73240;BME280;61452;40.054;4.110;2022-08-06T19:23:18;101625.38;;;29.47;66.50
73240;BME280;61452;40.054;4.110;2022-08-06T19:28:41;101608.84;;;29.42;66.19
73240;BME280;61452;40.054;4.110;2022-08-06T19:33:51;101616.78;;;29.43;66.22
73240;BME280;61452;40.054;4.110;2022-08-06T19:38:55;101616.78;;;29.43;66.49
73240;BME280;61452;40.054;4.110;2022-08-06T19:43:57;101625.41;;;29.39;66.97
73240;BME280;61452;40.054;4.110;2022-08-06T19:49:19;101634.72;;;29.36;67.04
73240;BME280;61452;40.054;4.110;2022-08-06T19:54:23;101649.94;;;29.37;67.48
73240;BME280;61452;40.054;4.110;2022-08-06T19:59:36;101646.03;;;29.31;68.10
73240;BME280;61452;40.054;4.110;2022-08-06T20:04:59;101647.69;;;29.32;67.85
73240;BME280;61452;40.054;4.110;2022-08-06T20:10:02;101643.00;;;29.34;67.68
73240;BME280;61452;40.054;4.110;2022-08-06T20:15:09;101655.97;;;29.39;67.25
73240;BME280;61452;40.054;4.110;2022-08-06T20:20:12;101660.75;;;29.37;67.01
73240;BME280;61452;40.054;4.110;2022-08-06T20:25:16;101665.09;;;29.38;67.66
73240;BME280;61452;40.054;4.110;2022-08-06T20:30:24;101668.19;;;29.35;68.76
73240;BME280;61452;40.054;4.110;2022-08-06T20:35:26;101671.03;;;29.33;68.71
73240;BME280;61452;40.054;4.110;2022-08-06T20:40:34;101650.78;;;29.38;68.92
73240;BME280;61452;40.054;4.110;2022-08-06T20:45:56;101652.09;;;29.42;68.63
73240;BME280;61452;40.054;4.110;2022-08-06T20:50:59;101652.25;;;29.40;68.87
73240;BME280;61452;40.054;4.110;2022-08-06T20:56:04;101657.50;;;29.42;68.44
73240;BME280;61452;40.054;4.110;2022-08-06T21:01:09;101655.94;;;29.47;67.84
73240;BME280;61452;40.054;4.110;2022-08-06T21:06:13;101656.28;;;29.44;67.83
73240;BME280;61452;40.054;4.110;2022-08-06T21:11:23;101651.94;;;29.43;65.94
73240;BME280;61452;40.054;4.110;2022-08-06T21:16:31;101656.50;;;29.43;64.81
73240;BME280;61452;40.054;4.110;2022-08-06T21:21:35;101661.06;;;29.42;63.53
73240;BME280;61452;40.054;4.110;2022-08-06T21:26:39;101659.53;;;29.40;62.97
73240;BME280;61452;40.054;4.110;2022-08-06T21:31:42;101654.81;;;29.42;62.61
73240;BME280;61452;40.054;4.110;2022-08-06T21:36:47;101635.72;;;29.43;62.56
73240;BME280;61452;40.054;4.110;2022-08-06T21:41:50;101623.53;;;29.39;62.91
73240;BME280;61452;40.054;4.110;2022-08-06T21:47:00;101627.22;;;29.46;63.11
73240;BME280;61452;40.054;4.110;2022-08-06T21:52:05;101619.34;;;29.37;61.59
73240;BME280;61452;40.054;4.110;2022-08-06T21:57:07;101620.53;;;29.34;62.47
73240;BME280;61452;40.054;4.110;2022-08-06T22:02:18;101618.06;;;29.16;60.86
73240;BME280;61452;40.054;4.110;2022-08-06T22:07:27;101626.88;;;29.02;60.73
73240;BME280;61452;40.054;4.110;2022-08-06T22:12:50;101632.47;;;29.01;61.67
73240;BME280;61452;40.054;4.110;2022-08-06T22:18:13;101611.38;;;28.96;61.73
73240;BME280;61452;40.054;4.110;2022-08-06T22:23:18;101617.78;;;28.95;62.36
73240;BME280;61452;40.054;4.110;2022-08-06T22:28:21;101626.94;;;28.94;61.95
73240;BME280;61452;40.054;4.110;2022-08-06T22:33:39;101624.56;;;28.91;61.23
73240;BME280;61452;40.054;4.110;2022-08-06T22:39:05;101627.25;;;28.91;59.82
73240;BME280;61452;40.054;4.110;2022-08-06T22:44:08;101633.66;;;28.90;58.51
73240;BME280;61452;40.054;4.110;2022-08-06T22:49:15;101629.47;;;28.87;58.90
73240;BME280;61452;40.054;4.110;2022-08-06T22:54:20;101636.75;;;28.79;58.51
73240;BME280;61452;40.054;4.110;2022-08-06T22:59:32;101631.69;;;28.76;58.04
73240;BME280;61452;40.054;4.110;2022-08-06T23:04:55;101638.13;;;28.75;58.22
73240;BME280;61452;40.054;4.110;2022-08-06T23:09:57;101638.59;;;28.78;58.95
73240;BME280;61452;40.054;4.110;2022-08-06T23:15:00;101622.72;;;28.83;59.88
73240;BME280;61452;40.054;4.110;2022-08-06T23:20:20;101619.69;;;28.78;61.38
73240;BME280;61452;40.054;4.110;2022-08-06T23:25:26;101615.31;;;28.77;60.80
73240;BME280;61452;40.054;4.110;2022-08-06T23:30:49;101604.50;;;28.77;59.98
73240;BME280;61452;40.054;4.110;2022-08-06T23:35:51;101599.47;;;28.74;59.56
73240;BME280;61452;40.054;4.110;2022-08-06T23:40:54;101606.00;;;28.72;60.44
73240;BME280;61452;40.054;4.110;2022-08-06T23:45:59;101599.97;;;28.70;59.83
73240;BME280;61452;40.054;4.110;2022-08-06T23:51:02;101594.56;;;28.70;60.76
73240;BME280;61452;40.054;4.110;2022-08-06T23:56:07;101573.97;;;28.61;61.01
